HomeShort term forecast

Short term forecast

Graphical weather forecast for the next 48 hours for Montreal:
Short term forecast
This weather forecast is automatically refreshed every 3 hours.

Hourly Experimental Forecast for the next 48 hours

Overall summary: Light snow (< 1 cm.) tomorrow morning and breezy starting tomorrow morning, continuing until tomorrow afternoon.

 Date & Hour   Temp   Feel   Baro   Hum   Speed & Bearing   Wind Gust   Precip.%   Precip.   Visibility   Cloud cover   Conditions 
 15/01/2019 - 20:00  -4.1°C  -8.0°C  1016.2 hPa  87%  9.3 km/h   17.1 km/h  9%  0.07 mm/h  11.5km  98%  Overcast 
 15/01/2019 - 21:00  -3.8°C  -7.7°C  1015.8 hPa  87%  9.7 km/h   21.6 km/h  5%  0.11 mm/h  12.8km  93%  Mostly Cloudy 
 15/01/2019 - 22:00  -2.8°C  -6.7°C  1015.1 hPa  84%  10.3 km/h   27.2 km/h  5%  0.10 mm/h  13.6km  99%  Overcast 
 15/01/2019 - 23:00  -2.1°C  -6.4°C  1014.0 hPa  83%  11.9 km/h   31.4 km/h  4%  0.06 mm/h  14.8km  100%  Overcast 
 16/01/2019 - 00:00  -1.5°C  -6.0°C  1012.9 hPa  81%  13.5 km/h   35.6 km/h  4%  0.05 mm/h  16.1km  100%  Overcast 
 16/01/2019 - 01:00  -1.2°C  -5.9°C  1011.9 hPa  80%  14.8 km/h   37.8 km/h  6%  0.08 mm/h  16.1km  100%  Overcast 
 16/01/2019 - 02:00  -1.3°C  -6.3°C  1011.0 hPa  80%  16.4 km/h   40.5 km/h  5%  0.04 mm/h  16.1km  100%  Overcast 
 16/01/2019 - 03:00  -1.5°C  -6.8°C  1010.2 hPa  81%  18.0 km/h   44.5 km/h  5%  0.04 mm/h  16.1km  100%  Overcast 
 16/01/2019 - 04:00  -1.8°C  -7.5°C  1009.4 hPa  82%  20.0 km/h   48.0 km/h  9%  0.08 mm/h  16.1km  100%  Overcast 
 16/01/2019 - 05:00  -2.2°C  -8.2°C  1008.6 hPa  84%  21.5 km/h   50.2 km/h  9%  0.05 mm/h  16.1km  100%  Overcast 
 16/01/2019 - 06:00  -2.5°C  -8.7°C  1007.8 hPa  84%  22.6 km/h   52.0 km/h  14%  0.06 mm/h  15.8km  97%  Overcast 
 16/01/2019 - 07:00  -2.6°C  -9.1°C  1007.3 hPa  85%  23.6 km/h   52.6 km/h  20%  0.20 mm/h  10.2km  93%  Possible Light Snow 
 16/01/2019 - 08:00  -2.5°C  -9.1°C  1006.8 hPa  87%  24.7 km/h   54.4 km/h  20%  0.28 mm/h  6.1km  80%  Possible Light Snow 
 16/01/2019 - 09:00  -2.1°C  -8.7°C  1006.0 hPa  88%  26.3 km/h   57.5 km/h  13%  0.19 mm/h  3.4km  100%  Possible Light Snow 
 16/01/2019 - 10:00  -1.8°C  -8.6°C  1005.7 hPa  89%  28.0 km/h   58.9 km/h  15%  0.24 mm/h  2.3km  100%  Possible Light Snow 
 16/01/2019 - 11:00  -1.5°C  -8.4°C  1005.6 hPa  87%  30.1 km/h   58.7 km/h  14%  0.19 mm/h  7.7km  100%  Breezy and Overcast 
 16/01/2019 - 12:00  -1.3°C  -8.3°C  1005.7 hPa  85%  31.5 km/h   57.5 km/h  17%  0.14 mm/h  16.1km  100%  Breezy and Overcast 
 16/01/2019 - 13:00  -1.7°C  -9.1°C  1006.4 hPa  82%  34.0 km/h   55.6 km/h  12%  0.11 mm/h  16.1km  97%  Breezy and Overcast 
 16/01/2019 - 14:00  -3.3°C  -11.1°C  1008.2 hPa  76%  32.8 km/h   52.2 km/h  7%  0.06 mm/h  16.1km  72%  Breezy and Mostly Cloudy 
 16/01/2019 - 15:00  -5.8°C  -14.3°C  1010.6 hPa  70%  32.4 km/h   47.7 km/h  4%  0.01 mm/h  16.1km  37%  Breezy and Partly Cloudy 
 16/01/2019 - 16:00  -8.2°C  -17.2°C  1013.0 hPa  66%  30.6 km/h   44.2 km/h  0%  --  16.1km  12%  Breezy 
 16/01/2019 - 17:00  -10.0°C  -19.2°C  1015.3 hPa  64%  28.3 km/h   43.3 km/h  0%  --  16.1km  5%  Clear 
 16/01/2019 - 18:00  -11.4°C  -20.7°C  1017.7 hPa  62%  25.5 km/h   43.2 km/h  0%  --  16.1km  2%  Clear 
 16/01/2019 - 19:00  -12.5°C  -21.6°C  1019.8 hPa  59%  23.0 km/h   41.8 km/h  2%  0.01 mm/h  16.1km  2%  Clear 
 16/01/2019 - 20:00  -13.5°C  -22.5°C  1021.5 hPa  58%  20.8 km/h   38.1 km/h  1%  0.01 mm/h  16.1km  1%  Clear 
 16/01/2019 - 21:00  -14.4°C  -23.1°C  1022.8 hPa  57%  18.9 km/h   33.3 km/h  1%  0.01 mm/h  16.1km  0%  Clear 
 16/01/2019 - 22:00  -15.1°C  -23.7°C  1024.0 hPa  56%  17.4 km/h   29.3 km/h  1%  0.01 mm/h  16.1km  0%  Clear 
 16/01/2019 - 23:00  -16.6°C  -25.2°C  1025.1 hPa  59%  16.3 km/h   26.8 km/h  0%  --  16.1km  0%  Clear 
 17/01/2019 - 00:00  -17.3°C  -25.9°C  1026.1 hPa  59%  15.5 km/h   25.1 km/h  0%  --  16.1km  0%  Clear 
 17/01/2019 - 01:00  -17.7°C  -26.1°C  1026.9 hPa  57%  15.0 km/h   23.7 km/h  0%  --  16.1km  0%  Clear 
 17/01/2019 - 02:00  -17.9°C  -26.2°C  1027.6 hPa  55%  14.3 km/h   22.6 km/h  0%  --  16.1km  0%  Clear 
 17/01/2019 - 03:00  -18.2°C  -26.4°C  1028.2 hPa  55%  13.7 km/h   21.9 km/h  0%  --  16.1km  0%  Clear 
 17/01/2019 - 04:00  -18.6°C  -26.7°C  1028.8 hPa  55%  13.1 km/h   21.3 km/h  0%  --  16.1km  0%  Clear 
 17/01/2019 - 05:00  -19.4°C  -27.3°C  1029.5 hPa  57%  12.2 km/h   20.9 km/h  0%  --  16.1km  0%  Clear 
 17/01/2019 - 06:00  -20.1°C  -27.9°C  1030.2 hPa  60%  11.3 km/h   20.7 km/h  1%  0.01 mm/h  16.1km  0%  Clear 
 17/01/2019 - 07:00  -20.3°C  -27.9°C  1030.7 hPa  61%  10.7 km/h   20.5 km/h  1%  0.01 mm/h  16.1km  0%  Clear 
 17/01/2019 - 08:00  -19.7°C  -27.2°C  1031.2 hPa  60%  10.8 km/h   20.7 km/h  2%  0.01 mm/h  16.1km  0%  Clear 
 17/01/2019 - 09:00  -18.8°C  -26.2°C  1031.4 hPa  59%  11.1 km/h   21.0 km/h  0%  --  16.1km  0%  Clear 
 17/01/2019 - 10:00  -18.3°C  -25.7°C  1031.3 hPa  61%  11.4 km/h   20.9 km/h  0%  --  16.1km  0%  Clear 
 17/01/2019 - 11:00  -17.3°C  -24.4°C  1030.8 hPa  61%  11.4 km/h   20.2 km/h  0%  --  16.1km  0%  Clear 
 17/01/2019 - 12:00  -15.1°C  -21.8°C  1030.0 hPa  56%  11.2 km/h   19.0 km/h  2%  0.01 mm/h  16.1km  0%  Clear 
 17/01/2019 - 13:00  -14.8°C  -21.2°C  1029.2 hPa  60%  10.6 km/h   17.6 km/h  2%  0.01 mm/h  16.1km  0%  Clear 
 17/01/2019 - 14:00  -13.9°C  -19.8°C  1028.5 hPa  59%  9.7 km/h   16.2 km/h  0%  --  16.1km  9%  Clear 
 17/01/2019 - 15:00  -13.3°C  -18.6°C  1027.8 hPa  59%  8.6 km/h   14.6 km/h  0%  --  16.1km  22%  Clear 
 17/01/2019 - 16:00  -13.4°C  -18.2°C  1027.3 hPa  61%  7.5 km/h   12.7 km/h  0%  --  16.1km  32%  Partly Cloudy 
 17/01/2019 - 17:00  -14.1°C  -18.5°C  1027.1 hPa  63%  6.5 km/h   10.0 km/h  0%  --  16.1km  34%  Partly Cloudy 
 17/01/2019 - 18:00  -15.1°C  -19.1°C  1027.1 hPa  64%  5.6 km/h   6.9 km/h  0%  --  16.1km  34%  Partly Cloudy 
 17/01/2019 - 19:00  -15.6°C  -15.6°C  1026.8 hPa  65%  4.8 km/h   5.0 km/h  0%  --  16.1km  36%  Partly Cloudy 
Test

 

Past weather and reports

Past weatherFind in this section the past weather conditions, weather archive, graphics, reports and statistics.

Current conditions

Current weather condition for MontrealAll you need to know about the current weather conditions for Montreal. Weather data is updated every 10 minutes.

Weather forecast

Current Montreal weatherSince 2004, celinium.com website has provided accurate weather forecast for Montreal's island.